sensor_id;sensor_type;location;lat;lon;timestamp;P1;durP1;ratioP1;P2;durP2;ratioP2
45926;SDS011;64003;47.600;19.682;2022-10-17T00:01:49;20.63;;;14.18;;
45926;SDS011;64003;47.600;19.682;2022-10-17T00:06:52;21.05;;;12.73;;
45926;SDS011;64003;47.600;19.682;2022-10-17T00:11:54;18.42;;;13.13;;
45926;SDS011;64003;47.600;19.682;2022-10-17T00:16:55;20.35;;;12.82;;
45926;SDS011;64003;47.600;19.682;2022-10-17T00:21:57;20.27;;;13.35;;
45926;SDS011;64003;47.600;19.682;2022-10-17T00:26:59;18.05;;;12.35;;
45926;SDS011;64003;47.600;19.682;2022-10-17T00:31:59;18.55;;;12.82;;
45926;SDS011;64003;47.600;19.682;2022-10-17T00:37:00;18.67;;;11.98;;
45926;SDS011;64003;47.600;19.682;2022-10-17T00:42:01;15.27;;;12.23;;
45926;SDS011;64003;47.600;19.682;2022-10-17T00:47:03;17.77;;;13.35;;
45926;SDS011;64003;47.600;19.682;2022-10-17T00:52:11;17.73;;;13.55;;
45926;SDS011;64003;47.600;19.682;2022-10-17T00:57:17;18.85;;;12.98;;
45926;SDS011;64003;47.600;19.682;2022-10-17T01:02:18;18.77;;;14.10;;
45926;SDS011;64003;47.600;19.682;2022-10-17T01:07:21;19.85;;;13.27;;
45926;SDS011;64003;47.600;19.682;2022-10-17T01:22:46;15.83;;;11.83;;
45926;SDS011;64003;47.600;19.682;2022-10-17T01:38:28;16.33;;;11.68;;
45926;SDS011;64003;47.600;19.682;2022-10-17T01:43:38;18.55;;;13.38;;
45926;SDS011;64003;47.600;19.682;2022-10-17T01:48:43;21.30;;;12.30;;
45926;SDS011;64003;47.600;19.682;2022-10-17T01:53:50;17.15;;;12.00;;
45926;SDS011;64003;47.600;19.682;2022-10-17T01:59:01;21.23;;;14.18;;
45926;SDS011;64003;47.600;19.682;2022-10-17T02:04:07;22.42;;;15.55;;
45926;SDS011;64003;47.600;19.682;2022-10-17T02:09:18;21.13;;;14.10;;
45926;SDS011;64003;47.600;19.682;2022-10-17T02:29:56;17.95;;;12.02;;
45926;SDS011;64003;47.600;19.682;2022-10-17T02:35:10;17.00;;;11.85;;
45926;SDS011;64003;47.600;19.682;2022-10-17T02:40:16;19.60;;;14.45;;
45926;SDS011;64003;47.600;19.682;2022-10-17T02:45:20;19.20;;;11.60;;
45926;SDS011;64003;47.600;19.682;2022-10-17T02:50:35;17.63;;;12.82;;
45926;SDS011;64003;47.600;19.682;2022-10-17T02:56:00;22.33;;;14.50;;
45926;SDS011;64003;47.600;19.682;2022-10-17T03:01:05;16.30;;;11.63;;
45926;SDS011;64003;47.600;19.682;2022-10-17T03:06:07;16.65;;;12.20;;
45926;SDS011;64003;47.600;19.682;2022-10-17T03:11:08;17.30;;;11.95;;
45926;SDS011;64003;47.600;19.682;2022-10-17T03:16:09;14.23;;;10.63;;
45926;SDS011;64003;47.600;19.682;2022-10-17T03:21:12;16.83;;;10.77;;
45926;SDS011;64003;47.600;19.682;2022-10-17T03:26:12;15.68;;;11.77;;
45926;SDS011;64003;47.600;19.682;2022-10-17T03:31:14;17.02;;;11.80;;
45926;SDS011;64003;47.600;19.682;2022-10-17T03:36:17;14.48;;;11.05;;
45926;SDS011;64003;47.600;19.682;2022-10-17T03:41:18;17.10;;;11.23;;
45926;SDS011;64003;47.600;19.682;2022-10-17T03:46:19;16.35;;;11.18;;
45926;SDS011;64003;47.600;19.682;2022-10-17T03:51:19;12.82;;;10.82;;
45926;SDS011;64003;47.600;19.682;2022-10-17T03:56:21;17.85;;;13.10;;
45926;SDS011;64003;47.600;19.682;2022-10-17T04:01:24;21.70;;;13.95;;
45926;SDS011;64003;47.600;19.682;2022-10-17T04:06:25;17.95;;;12.70;;
45926;SDS011;64003;47.600;19.682;2022-10-17T04:11:32;15.05;;;11.05;;
45926;SDS011;64003;47.600;19.682;2022-10-17T04:16:33;17.38;;;12.07;;
45926;SDS011;64003;47.600;19.682;2022-10-17T04:21:33;14.63;;;10.05;;
45926;SDS011;64003;47.600;19.682;2022-10-17T04:26:34;17.23;;;11.57;;
45926;SDS011;64003;47.600;19.682;2022-10-17T04:31:34;19.23;;;12.40;;
45926;SDS011;64003;47.600;19.682;2022-10-17T04:36:36;15.07;;;10.27;;
45926;SDS011;64003;47.600;19.682;2022-10-17T04:41:37;12.35;;;9.50;;
45926;SDS011;64003;47.600;19.682;2022-10-17T04:46:38;13.93;;;9.52;;
45926;SDS011;64003;47.600;19.682;2022-10-17T04:51:40;16.02;;;10.25;;
45926;SDS011;64003;47.600;19.682;2022-10-17T04:56:41;14.00;;;9.98;;
45926;SDS011;64003;47.600;19.682;2022-10-17T05:01:41;22.27;;;14.77;;
45926;SDS011;64003;47.600;19.682;2022-10-17T05:06:42;27.25;;;15.80;;
45926;SDS011;64003;47.600;19.682;2022-10-17T05:11:42;23.35;;;14.80;;
45926;SDS011;64003;47.600;19.682;2022-10-17T05:16:43;24.63;;;15.82;;
45926;SDS011;64003;47.600;19.682;2022-10-17T05:21:44;18.65;;;12.98;;
45926;SDS011;64003;47.600;19.682;2022-10-17T05:26:44;25.00;;;15.70;;
45926;SDS011;64003;47.600;19.682;2022-10-17T05:31:45;15.35;;;10.30;;
45926;SDS011;64003;47.600;19.682;2022-10-17T05:36:45;18.42;;;11.88;;
45926;SDS011;64003;47.600;19.682;2022-10-17T05:41:47;23.83;;;13.82;;
45926;SDS011;64003;47.600;19.682;2022-10-17T05:46:50;49.15;;;23.60;;
45926;SDS011;64003;47.600;19.682;2022-10-17T05:51:51;24.17;;;12.63;;
45926;SDS011;64003;47.600;19.682;2022-10-17T05:56:53;23.33;;;13.35;;
45926;SDS011;64003;47.600;19.682;2022-10-17T06:01:55;20.27;;;13.35;;
45926;SDS011;64003;47.600;19.682;2022-10-17T07:14:31;22.45;;;15.60;;
45926;SDS011;64003;47.600;19.682;2022-10-17T07:20:23;30.10;;;17.65;;
45926;SDS011;64003;47.600;19.682;2022-10-17T07:42:36;23.67;;;15.55;;
45926;SDS011;64003;47.600;19.682;2022-10-17T07:47:45;12.40;;;9.52;;
45926;SDS011;64003;47.600;19.682;2022-10-17T07:52:46;14.35;;;9.88;;
45926;SDS011;64003;47.600;19.682;2022-10-17T07:57:47;12.03;;;9.53;;
45926;SDS011;64003;47.600;19.682;2022-10-17T08:02:47;12.07;;;9.80;;
45926;SDS011;64003;47.600;19.682;2022-10-17T08:07:48;13.70;;;10.20;;
45926;SDS011;64003;47.600;19.682;2022-10-17T08:12:48;11.50;;;9.45;;
45926;SDS011;64003;47.600;19.682;2022-10-17T08:17:48;12.63;;;9.73;;
45926;SDS011;64003;47.600;19.682;2022-10-17T08:22:52;13.60;;;12.07;;
45926;SDS011;64003;47.600;19.682;2022-10-17T08:27:53;24.20;;;21.25;;
45926;SDS011;64003;47.600;19.682;2022-10-17T08:32:54;10.57;;;9.47;;
45926;SDS011;64003;47.600;19.682;2022-10-17T08:37:57;8.93;;;8.02;;
45926;SDS011;64003;47.600;19.682;2022-10-17T08:48:12;12.32;;;8.35;;
45926;SDS011;64003;47.600;19.682;2022-10-17T08:53:17;9.00;;;7.78;;
45926;SDS011;64003;47.600;19.682;2022-10-17T08:58:28;11.52;;;8.80;;
45926;SDS011;64003;47.600;19.682;2022-10-17T09:04:32;9.55;;;7.57;;
45926;SDS011;64003;47.600;19.682;2022-10-17T09:19:54;8.73;;;7.82;;
45926;SDS011;64003;47.600;19.682;2022-10-17T09:25:04;9.73;;;8.02;;
45926;SDS011;64003;47.600;19.682;2022-10-17T09:30:18;9.57;;;7.78;;
45926;SDS011;64003;47.600;19.682;2022-10-17T09:35:20;11.40;;;9.10;;
45926;SDS011;64003;47.600;19.682;2022-10-17T09:40:27;12.27;;;7.85;;
45926;SDS011;64003;47.600;19.682;2022-10-17T09:45:32;10.18;;;7.45;;
45926;SDS011;64003;47.600;19.682;2022-10-17T09:50:42;9.80;;;7.60;;
45926;SDS011;64003;47.600;19.682;2022-10-17T09:55:46;9.85;;;6.90;;
45926;SDS011;64003;47.600;19.682;2022-10-17T10:00:49;8.88;;;7.10;;
45926;SDS011;64003;47.600;19.682;2022-10-17T10:11:05;10.50;;;6.15;;
45926;SDS011;64003;47.600;19.682;2022-10-17T10:16:17;8.07;;;6.53;;
45926;SDS011;64003;47.600;19.682;2022-10-17T10:21:22;9.10;;;6.55;;
45926;SDS011;64003;47.600;19.682;2022-10-17T10:26:46;8.30;;;6.03;;
45926;SDS011;64003;47.600;19.682;2022-10-17T10:31:46;7.53;;;5.55;;
45926;SDS011;64003;47.600;19.682;2022-10-17T10:36:56;10.32;;;5.78;;
45926;SDS011;64003;47.600;19.682;2022-10-17T10:41:57;7.55;;;6.05;;
45926;SDS011;64003;47.600;19.682;2022-10-17T10:47:20;7.70;;;5.93;;
45926;SDS011;64003;47.600;19.682;2022-10-17T10:52:26;8.70;;;5.50;;
45926;SDS011;64003;47.600;19.682;2022-10-17T10:57:35;9.65;;;6.50;;
45926;SDS011;64003;47.600;19.682;2022-10-17T11:02:58;7.20;;;5.43;;
45926;SDS011;64003;47.600;19.682;2022-10-17T11:13:39;8.88;;;5.60;;
45926;SDS011;64003;47.600;19.682;2022-10-17T11:18:58;7.65;;;5.53;;
45926;SDS011;64003;47.600;19.682;2022-10-17T11:34:30;6.90;;;5.40;;
45926;SDS011;64003;47.600;19.682;2022-10-17T11:44:41;7.22;;;5.30;;
45926;SDS011;64003;47.600;19.682;2022-10-17T11:50:25;10.63;;;6.07;;
45926;SDS011;64003;47.600;19.682;2022-10-17T11:55:23;7.97;;;5.85;;
45926;SDS011;64003;47.600;19.682;2022-10-17T12:05:58;8.25;;;6.43;;
45926;SDS011;64003;47.600;19.682;2022-10-17T12:21:27;11.15;;;5.50;;
45926;SDS011;64003;47.600;19.682;2022-10-17T12:26:48;8.50;;;6.35;;
45926;SDS011;64003;47.600;19.682;2022-10-17T12:31:48;13.40;;;6.30;;
45926;SDS011;64003;47.600;19.682;2022-10-17T12:36:49;8.53;;;5.73;;
45926;SDS011;64003;47.600;19.682;2022-10-17T12:52:25;9.18;;;6.05;;
45926;SDS011;64003;47.600;19.682;2022-10-17T12:57:47;7.20;;;5.38;;
45926;SDS011;64003;47.600;19.682;2022-10-17T13:03:02;10.40;;;5.32;;
45926;SDS011;64003;47.600;19.682;2022-10-17T13:08:19;7.60;;;5.90;;
45926;SDS011;64003;47.600;19.682;2022-10-17T13:18:51;6.95;;;5.28;;
45926;SDS011;64003;47.600;19.682;2022-10-17T13:23:51;6.68;;;4.90;;
45926;SDS011;64003;47.600;19.682;2022-10-17T13:29:03;7.30;;;4.50;;
45926;SDS011;64003;47.600;19.682;2022-10-17T13:34:14;6.13;;;4.80;;
45926;SDS011;64003;47.600;19.682;2022-10-17T13:39:17;6.88;;;4.63;;
45926;SDS011;64003;47.600;19.682;2022-10-17T13:44:19;6.25;;;4.28;;
45926;SDS011;64003;47.600;19.682;2022-10-17T13:49:25;6.95;;;4.53;;
45926;SDS011;64003;47.600;19.682;2022-10-17T13:59:36;7.28;;;4.00;;
45926;SDS011;64003;47.600;19.682;2022-10-17T14:04:39;8.07;;;4.40;;
45926;SDS011;64003;47.600;19.682;2022-10-17T14:09:40;4.97;;;4.13;;
45926;SDS011;64003;47.600;19.682;2022-10-17T14:14:46;6.55;;;4.35;;
45926;SDS011;64003;47.600;19.682;2022-10-17T14:19:52;6.03;;;4.35;;
45926;SDS011;64003;47.600;19.682;2022-10-17T14:24:55;5.53;;;4.18;;
45926;SDS011;64003;47.600;19.682;2022-10-17T14:29:57;6.07;;;4.30;;
45926;SDS011;64003;47.600;19.682;2022-10-17T14:35:03;8.10;;;4.22;;
45926;SDS011;64003;47.600;19.682;2022-10-17T14:40:05;10.48;;;4.60;;
45926;SDS011;64003;47.600;19.682;2022-10-17T14:45:07;9.30;;;4.82;;
45926;SDS011;64003;47.600;19.682;2022-10-17T14:55:22;9.48;;;5.88;;
45926;SDS011;64003;47.600;19.682;2022-10-17T15:00:25;7.22;;;4.80;;
45926;SDS011;64003;47.600;19.682;2022-10-17T15:05:26;7.53;;;4.68;;
45926;SDS011;64003;47.600;19.682;2022-10-17T15:10:33;9.40;;;5.97;;
45926;SDS011;64003;47.600;19.682;2022-10-17T15:15:35;10.30;;;6.18;;
45926;SDS011;64003;47.600;19.682;2022-10-17T15:20:37;11.20;;;6.20;;
45926;SDS011;64003;47.600;19.682;2022-10-17T15:25:38;22.98;;;16.05;;
45926;SDS011;64003;47.600;19.682;2022-10-17T15:30:39;14.57;;;9.15;;
45926;SDS011;64003;47.600;19.682;2022-10-17T15:35:39;10.75;;;6.13;;
45926;SDS011;64003;47.600;19.682;2022-10-17T15:40:41;8.90;;;5.55;;
45926;SDS011;64003;47.600;19.682;2022-10-17T15:45:42;9.93;;;6.80;;
45926;SDS011;64003;47.600;19.682;2022-10-17T15:50:42;11.27;;;7.60;;
45926;SDS011;64003;47.600;19.682;2022-10-17T15:55:43;21.58;;;16.02;;
45926;SDS011;64003;47.600;19.682;2022-10-17T16:00:43;61.60;;;43.90;;
45926;SDS011;64003;47.600;19.682;2022-10-17T16:05:44;221.82;;;130.45;;
45926;SDS011;64003;47.600;19.682;2022-10-17T16:10:45;260.60;;;170.93;;
45926;SDS011;64003;47.600;19.682;2022-10-17T16:15:45;124.95;;;79.53;;
45926;SDS011;64003;47.600;19.682;2022-10-17T16:20:46;122.53;;;79.63;;
45926;SDS011;64003;47.600;19.682;2022-10-17T16:25:46;131.55;;;76.93;;
45926;SDS011;64003;47.600;19.682;2022-10-17T16:30:47;129.07;;;74.87;;
45926;SDS011;64003;47.600;19.682;2022-10-17T16:35:48;178.48;;;98.75;;
45926;SDS011;64003;47.600;19.682;2022-10-17T16:40:48;170.67;;;93.80;;
45926;SDS011;64003;47.600;19.682;2022-10-17T16:45:49;145.73;;;84.75;;
45926;SDS011;64003;47.600;19.682;2022-10-17T16:50:49;133.30;;;72.40;;
45926;SDS011;64003;47.600;19.682;2022-10-17T16:56:02;99.97;;;57.80;;
45926;SDS011;64003;47.600;19.682;2022-10-17T17:01:05;99.93;;;55.05;;
45926;SDS011;64003;47.600;19.682;2022-10-17T17:06:08;90.95;;;51.08;;
45926;SDS011;64003;47.600;19.682;2022-10-17T17:11:14;86.43;;;47.00;;
45926;SDS011;64003;47.600;19.682;2022-10-17T18:28:07;95.07;;;46.90;;
45926;SDS011;64003;47.600;19.682;2022-10-17T18:52:07;34.83;;;21.58;;
45926;SDS011;64003;47.600;19.682;2022-10-17T19:03:57;104.40;;;45.42;;
45926;SDS011;64003;47.600;19.682;2022-10-17T19:38:18;137.02;;;62.10;;
45926;SDS011;64003;47.600;19.682;2022-10-17T19:44:03;131.65;;;62.63;;
45926;SDS011;64003;47.600;19.682;2022-10-17T19:49:40;131.77;;;60.30;;
